Time;durP1;ratioP1;P1;durP2;ratioP2;P2;SDS_P1;SDS_P2;PMS_P1;PMS_P2;Temp;Humidity;BMP_temperature;BMP_pressure;BME280_temperature;BME280_humidity;BME280_pressure;Samples;Min_cycle;Max_cycle;Signal;HPM_P1;HPM_P2
2023/07/06 00:01:39;;;;;;;;;9.33;8.00;;;;;;;;5015964;28;45687;-73
2023/07/06 00:04:04;;;;;;;;;8.67;7.00;;;;;;;;5014553;28;45583;-73
2023/07/06 00:06:32;;;;;;;;;8.33;7.33;;;;;;;;5011178;28;45637;-75
2023/07/06 00:08:57;;;;;;;;;5.00;5.00;;;;;;;;5011336;28;45638;-73
2023/07/06 00:11:23;;;;;;;;;9.00;7.33;;;;;;;;5009820;28;45559;-75
2023/07/06 00:13:48;;;;;;;;;8.67;7.67;;;;;;;;5011195;28;45639;-74
2023/07/06 00:16:13;;;;;;;;;10.00;9.00;;;;;;;;4988963;28;46938;-73
2023/07/06 00:18:39;;;;;;;;;9.33;7.00;;;;;;;;5007038;28;45252;-75
2023/07/06 00:21:04;;;;;;;;;10.33;8.33;;;;;;;;5008869;28;45773;-74
2023/07/06 00:23:30;;;;;;;;;7.00;5.00;;;;;;;;5009077;28;46019;-72
2023/07/06 00:25:55;;;;;;;;;6.00;6.00;;;;;;;;5009994;28;45995;-73
2023/07/06 00:28:25;;;;;;;;;8.33;5.67;;;;;;;;5009806;28;45852;-74
2023/07/06 00:33:18;;;;;;;;;8.67;4.67;;;;;;;;5009617;28;45870;-73
2023/07/06 00:35:43;;;;;;;;;6.67;6.67;;;;;;;;5010235;28;45241;-72
2023/07/06 00:38:11;;;;;;;;;12.00;8.67;;;;;;;;5001227;28;45606;-73
2023/07/06 00:40:40;;;;;;;;;13.00;9.67;;;;;;;;5001307;28;45457;-74
2023/07/06 00:43:09;;;;;;;;;5.00;5.00;;;;;;;;5007575;28;45900;-73
2023/07/06 00:45:35;;;;;;;;;8.33;7.67;;;;;;;;5006239;28;45833;-73
2023/07/06 00:48:01;;;;;;;;;15.67;15.00;;;;;;;;5002802;28;45567;-76
2023/07/06 00:50:28;;;;;;;;;24.67;18.00;;;;;;;;5009507;28;45718;-74
2023/07/06 00:52:58;;;;;;;;;9.33;8.33;;;;;;;;5010085;28;45529;-73
2023/07/06 00:55:27;;;;;;;;;13.33;10.33;;;;;;;;5008448;28;47251;-73
2023/07/06 00:57:55;;;;;;;;;11.67;10.33;;;;;;;;5006798;28;45564;-73
2023/07/06 01:00:21;;;;;;;;;20.00;17.00;;;;;;;;5009910;28;45378;-72
2023/07/06 01:02:47;;;;;;;;;17.67;15.33;;;;;;;;5009180;28;45659;-73
2023/07/06 01:05:12;;;;;;;;;20.00;15.67;;;;;;;;5010760;28;46530;-73
2023/07/06 01:07:40;;;;;;;;;8.67;8.67;;;;;;;;5013158;28;45698;-69
2023/07/06 01:10:08;;;;;;;;;12.33;10.00;;;;;;;;5013035;28;45430;-69
2023/07/06 01:12:34;;;;;;;;;8.00;8.00;;;;;;;;5012612;28;45837;-70
2023/07/06 01:14:59;;;;;;;;;8.00;7.33;;;;;;;;5011222;28;45889;-69
2023/07/06 01:17:30;;;;;;;;;8.67;5.67;;;;;;;;5009463;28;45786;-69
2023/07/06 01:20:14;;;;;;;;;7.33;5.67;;;;;;;;5012630;28;45477;-70
2023/07/06 01:22:58;;;;;;;;;7.00;7.00;;;;;;;;5009380;28;45650;-69
2023/07/06 01:25:42;;;;;;;;;8.67;8.00;;;;;;;;5012678;28;46494;-70
2023/07/06 01:28:27;;;;;;;;;6.67;6.67;;;;;;;;5007058;28;45768;-69
2023/07/06 01:31:11;;;;;;;;;6.33;5.67;;;;;;;;5011525;28;45565;-68
2023/07/06 01:33:40;;;;;;;;;6.00;6.00;;;;;;;;5012328;28;45697;-69
2023/07/06 01:36:09;;;;;;;;;5.00;5.00;;;;;;;;5013734;28;46257;-72
2023/07/06 01:38:34;;;;;;;;;8.33;7.00;;;;;;;;5011056;28;45591;-69
2023/07/06 01:40:59;;;;;;;;;5.67;5.67;;;;;;;;5012793;28;45458;-69
2023/07/06 01:43:25;;;;;;;;;7.00;6.00;;;;;;;;5011896;28;45846;-69
2023/07/06 01:45:51;;;;;;;;;9.67;6.00;;;;;;;;5011632;28;45747;-70
2023/07/06 01:48:16;;;;;;;;;8.33;7.00;;;;;;;;5012047;28;45641;-69
2023/07/06 01:50:48;;;;;;;;;6.67;5.00;;;;;;;;5013555;28;45386;-70
2023/07/06 01:53:30;;;;;;;;;5.33;5.33;;;;;;;;5007089;28;45582;-70
2023/07/06 01:56:03;;;;;;;;;7.67;6.00;;;;;;;;5011075;28;48606;-70
2023/07/06 01:58:33;;;;;;;;;7.33;7.33;;;;;;;;5012624;28;45698;-69
2023/07/06 02:01:10;;;;;;;;;6.67;6.67;;;;;;;;5014299;28;45484;-70
2023/07/06 02:03:38;;;;;;;;;4.67;4.00;;;;;;;;5013537;28;45379;-69
2023/07/06 02:06:06;;;;;;;;;10.00;7.33;;;;;;;;5011407;28;45355;-69
2023/07/06 02:08:31;;;;;;;;;8.67;7.67;;;;;;;;5012527;28;45480;-70
2023/07/06 02:10:57;;;;;;;;;8.00;8.00;;;;;;;;5013242;28;45406;-70
2023/07/06 02:13:23;;;;;;;;;8.00;7.00;;;;;;;;5012260;28;45716;-68
2023/07/06 02:15:48;;;;;;;;;13.33;9.33;;;;;;;;5012509;28;45988;-70
2023/07/06 02:18:13;;;;;;;;;11.33;9.67;;;;;;;;5010744;28;46017;-68
2023/07/06 02:20:39;;;;;;;;;8.67;8.00;;;;;;;;5012904;28;45700;-69
2023/07/06 02:23:07;;;;;;;;;9.33;9.00;;;;;;;;5005335;28;45602;-69
2023/07/06 02:25:33;;;;;;;;;9.33;9.33;;;;;;;;5010114;28;45659;-69
2023/07/06 02:27:58;;;;;;;;;12.33;8.33;;;;;;;;5010493;28;45658;-69
2023/07/06 02:30:23;;;;;;;;;7.33;7.33;;;;;;;;5012294;28;45728;-72
2023/07/06 02:32:49;;;;;;;;;10.67;8.67;;;;;;;;4999115;28;45827;-70
2023/07/06 02:35:15;;;;;;;;;7.67;6.67;;;;;;;;5007776;28;47013;-69
2023/07/06 02:37:40;;;;;;;;;7.33;7.33;;;;;;;;5012232;28;45238;-70
2023/07/06 02:40:09;;;;;;;;;7.33;7.33;;;;;;;;5012282;28;45465;-69
2023/07/06 02:42:34;;;;;;;;;6.00;4.67;;;;;;;;5011961;28;45645;-69
2023/07/06 02:45:00;;;;;;;;;8.33;6.67;;;;;;;;5011830;28;45486;-70
2023/07/06 02:47:25;;;;;;;;;9.00;6.33;;;;;;;;5012447;28;45374;-71
2023/07/06 02:49:50;;;;;;;;;6.00;5.33;;;;;;;;5010433;28;45573;-69
2023/07/06 02:52:15;;;;;;;;;7.33;7.33;;;;;;;;5012878;28;45530;-69
2023/07/06 02:54:41;;;;;;;;;8.00;5.00;;;;;;;;5012339;28;45305;-70
2023/07/06 02:57:06;;;;;;;;;6.00;5.00;;;;;;;;5006974;28;45408;-69
2023/07/06 02:59:32;;;;;;;;;9.00;5.33;;;;;;;;4997732;28;45453;-69
2023/07/06 03:01:58;;;;;;;;;7.33;6.67;;;;;;;;5011785;28;45568;-71
2023/07/06 03:04:23;;;;;;;;;8.67;8.00;;;;;;;;5011216;28;45762;-71
2023/07/06 03:06:48;;;;;;;;;10.00;9.00;;;;;;;;5009932;28;45880;-71
2023/07/06 03:09:14;;;;;;;;;7.33;7.33;;;;;;;;5012170;28;45676;-70
2023/07/06 03:11:44;;;;;;;;;8.33;7.00;;;;;;;;5010484;28;45377;-72
2023/07/06 03:14:11;;;;;;;;;7.33;7.33;;;;;;;;5010965;28;46658;-71
2023/07/06 03:16:39;;;;;;;;;11.33;8.67;;;;;;;;5009080;28;45353;-70
2023/07/06 03:19:05;;;;;;;;;9.00;8.33;;;;;;;;5011061;28;45843;-71
2023/07/06 03:21:31;;;;;;;;;9.33;7.33;;;;;;;;5011598;28;45800;-71
2023/07/06 03:23:56;;;;;;;;;9.33;6.00;;;;;;;;5010537;28;45956;-70
2023/07/06 03:26:22;;;;;;;;;8.67;8.67;;;;;;;;5011466;28;45445;-72
2023/07/06 03:28:47;;;;;;;;;9.00;6.33;;;;;;;;5004388;28;45387;-70
2023/07/06 03:31:14;;;;;;;;;7.33;6.00;;;;;;;;5009732;28;46055;-71
2023/07/06 03:33:41;;;;;;;;;7.67;7.33;;;;;;;;5010999;28;45494;-70
2023/07/06 03:36:06;;;;;;;;;9.33;9.00;;;;;;;;5006713;28;45721;-70
2023/07/06 03:38:35;;;;;;;;;10.33;9.67;;;;;;;;5011464;28;45687;-71
2023/07/06 03:41:03;;;;;;;;;9.33;8.33;;;;;;;;5009270;28;45418;-70
2023/07/06 03:43:29;;;;;;;;;6.00;5.00;;;;;;;;5010434;28;45779;-72
2023/07/06 03:45:54;;;;;;;;;9.00;7.67;;;;;;;;5010562;28;45627;-71
2023/07/06 03:48:21;;;;;;;;;11.00;8.67;;;;;;;;5010800;28;45745;-69
2023/07/06 03:50:47;;;;;;;;;13.00;8.00;;;;;;;;5011898;28;45653;-69
2023/07/06 03:53:12;;;;;;;;;11.00;10.67;;;;;;;;5010042;28;45953;-71
2023/07/06 03:55:40;;;;;;;;;11.33;9.67;;;;;;;;5010641;28;45402;-71
2023/07/06 03:58:07;;;;;;;;;9.67;8.00;;;;;;;;5010733;28;45821;-70
2023/07/06 04:00:34;;;;;;;;;9.00;7.00;;;;;;;;5009880;28;45647;-71
2023/07/06 04:03:03;;;;;;;;;10.33;7.00;;;;;;;;5005624;28;45507;-71
2023/07/06 04:05:32;;;;;;;;;9.33;7.67;;;;;;;;4982927;28;45391;-72
2023/07/06 04:08:03;;;;;;;;;6.33;6.33;;;;;;;;5009843;28;45860;-71
2023/07/06 04:10:29;;;;;;;;;10.33;7.67;;;;;;;;5010011;28;45775;-71
2023/07/06 04:12:54;;;;;;;;;9.67;9.00;;;;;;;;5009648;28;45749;-72
2023/07/06 04:15:20;;;;;;;;;10.00;7.67;;;;;;;;5006833;28;45474;-71
2023/07/06 04:17:52;;;;;;;;;10.67;8.67;;;;;;;;5011002;28;45934;-71
2023/07/06 04:20:19;;;;;;;;;12.00;9.33;;;;;;;;5003688;28;45671;-71
2023/07/06 04:22:47;;;;;;;;;10.67;7.67;;;;;;;;5007740;28;45648;-70
2023/07/06 04:25:18;;;;;;;;;10.67;10.00;;;;;;;;5010050;28;45852;-71
2023/07/06 04:27:44;;;;;;;;;12.00;10.67;;;;;;;;4999291;28;45434;-72
2023/07/06 04:30:10;;;;;;;;;10.33;9.00;;;;;;;;4994930;28;45396;-73
2023/07/06 04:32:36;;;;;;;;;12.00;10.00;;;;;;;;5006692;28;45587;-72
2023/07/06 04:35:01;;;;;;;;;17.00;13.33;;;;;;;;5009936;28;45560;-70
2023/07/06 04:37:26;;;;;;;;;12.33;12.33;;;;;;;;5005515;28;45855;-70
2023/07/06 04:39:51;;;;;;;;;11.67;10.33;;;;;;;;5010009;28;45548;-71
2023/07/06 04:42:17;;;;;;;;;8.33;8.33;;;;;;;;5014308;28;45548;-71
2023/07/06 04:44:44;;;;;;;;;7.33;7.33;;;;;;;;4996748;28;45399;-71
2023/07/06 04:47:09;;;;;;;;;11.67;10.33;;;;;;;;5013786;28;45753;-70
2023/07/06 04:49:34;;;;;;;;;9.00;9.00;;;;;;;;5013678;28;45777;-71
2023/07/06 04:52:00;;;;;;;;;14.67;12.00;;;;;;;;5009540;28;47024;-71
2023/07/06 04:54:25;;;;;;;;;12.33;10.33;;;;;;;;5008411;28;45495;-71
2023/07/06 04:56:51;;;;;;;;;10.00;10.00;;;;;;;;5013478;28;45741;-69
2023/07/06 04:59:16;;;;;;;;;14.00;9.00;;;;;;;;5001987;28;45834;-70
2023/07/06 05:01:42;;;;;;;;;11.33;11.33;;;;;;;;5011208;28;46157;-71
2023/07/06 05:04:09;;;;;;;;;21.00;14.00;;;;;;;;5013444;28;45695;-70
2023/07/06 05:06:34;;;;;;;;;11.00;8.67;;;;;;;;5014528;28;45805;-71
2023/07/06 05:09:00;;;;;;;;;13.33;12.33;;;;;;;;5013636;28;45455;-69
2023/07/06 05:11:26;;;;;;;;;5.00;5.00;;;;;;;;5014425;28;45948;-76
2023/07/06 05:13:51;;;;;;;;;10.00;10.00;;;;;;;;5010728;28;46022;-70
2023/07/06 05:16:17;;;;;;;;;12.67;11.33;;;;;;;;5010853;28;45494;-71
2023/07/06 05:18:43;;;;;;;;;12.00;10.33;;;;;;;;5004319;28;45645;-71
2023/07/06 05:21:10;;;;;;;;;15.33;10.33;;;;;;;;5009098;28;45792;-69
2023/07/06 05:23:35;;;;;;;;;12.00;9.33;;;;;;;;5003062;28;45764;-68
2023/07/06 05:26:02;;;;;;;;;10.67;9.67;;;;;;;;5008384;28;45798;-70
2023/07/06 05:28:29;;;;;;;;;9.25;9.25;;;;;;;;4992586;28;45870;-70
2023/07/06 05:30:54;;;;;;;;;7.25;6.75;;;;;;;;5008414;28;45307;-71
2023/07/06 05:33:20;;;;;;;;;10.67;10.67;;;;;;;;5012057;28;45604;-71
2023/07/06 05:35:47;;;;;;;;;8.67;8.67;;;;;;;;5002210;28;45770;-70
2023/07/06 05:38:15;;;;;;;;;10.33;9.00;;;;;;;;5013760;28;46229;-71
2023/07/06 05:40:45;;;;;;;;;11.25;11.25;;;;;;;;5014276;28;45748;-72
2023/07/06 05:43:10;;;;;;;;;11.75;10.75;;;;;;;;5012731;28;45281;-79
2023/07/06 05:45:36;;;;;;;;;14.33;12.67;;;;;;;;5012060;28;45651;-77
2023/07/06 05:48:02;;;;;;;;;13.00;9.25;;;;;;;;5013761;28;45952;-79
2023/07/06 05:50:27;;;;;;;;;13.00;11.00;;;;;;;;5010836;28;45986;-79
2023/07/06 05:52:52;;;;;;;;;12.25;11.50;;;;;;;;5011270;28;45348;-80
2023/07/06 05:55:18;;;;;;;;;12.00;10.75;;;;;;;;5010556;28;46756;-78
2023/07/06 05:57:46;;;;;;;;;9.00;9.00;;;;;;;;5012801;28;45476;-79
2023/07/06 06:00:13;;;;;;;;;10.67;9.67;;;;;;;;4994208;28;47735;-79
2023/07/06 06:02:39;;;;;;;;;13.00;9.00;;;;;;;;5009607;28;45736;-78
2023/07/06 06:05:05;;;;;;;;;7.50;7.25;;;;;;;;5013024;28;45683;-73
2023/07/06 06:07:33;;;;;;;;;9.25;9.25;;;;;;;;4995646;28;45274;-76
2023/07/06 06:09:59;;;;;;;;;9.50;9.00;;;;;;;;5007702;28;45940;-79
2023/07/06 06:12:27;;;;;;;;;11.67;10.33;;;;;;;;5001684;28;45942;-74
2023/07/06 06:14:53;;;;;;;;;11.75;10.75;;;;;;;;4993438;28;45928;-76
2023/07/06 06:17:19;;;;;;;;;8.67;8.67;;;;;;;;5005682;28;45746;-74
2023/07/06 06:19:48;;;;;;;;;11.50;10.50;;;;;;;;5012557;28;45550;-78
2023/07/06 06:22:14;;;;;;;;;9.25;9.25;;;;;;;;4998790;28;45745;-74
2023/07/06 06:24:40;;;;;;;;;7.75;7.25;;;;;;;;4997006;28;45693;-78
2023/07/06 06:27:06;;;;;;;;;9.25;5.75;;;;;;;;5002774;28;45702;-79
2023/07/06 06:29:32;;;;;;;;;7.00;6.50;;;;;;;;5010727;28;45521;-78
2023/07/06 06:31:58;;;;;;;;;7.50;7.00;;;;;;;;5010929;28;45921;-81
2023/07/06 06:34:23;;;;;;;;;3.75;3.75;;;;;;;;4997325;28;45394;-78
2023/07/06 06:36:49;;;;;;;;;6.50;5.25;;;;;;;;5008408;28;45591;-79
2023/07/06 06:39:14;;;;;;;;;8.75;6.50;;;;;;;;4994311;28;46595;-79
2023/07/06 06:41:40;;;;;;;;;8.75;7.00;;;;;;;;5006500;28;45637;-80
2023/07/06 06:44:05;;;;;;;;;4.75;3.25;;;;;;;;5011395;28;45866;-77
2023/07/06 06:46:30;;;;;;;;;4.25;4.25;;;;;;;;5008474;28;46164;-77
2023/07/06 06:48:55;;;;;;;;;3.00;3.00;;;;;;;;5016971;28;46729;-78
2023/07/06 06:51:20;;;;;;;;;1.75;1.75;;;;;;;;5012441;28;45184;-76
2023/07/06 06:53:46;;;;;;;;;2.00;2.00;;;;;;;;5010740;28;45895;-77
2023/07/06 06:56:12;;;;;;;;;5.00;1.75;;;;;;;;4992742;28;45875;-73
2023/07/06 06:58:38;;;;;;;;;2.75;2.75;;;;;;;;5010584;28;47098;-76
2023/07/06 07:01:05;;;;;;;;;3.75;2.25;;;;;;;;5008845;28;45881;-77
2023/07/06 07:03:31;;;;;;;;;2.25;2.25;;;;;;;;5014397;28;45790;-75
2023/07/06 07:06:01;;;;;;;;;3.00;1.75;;;;;;;;5005454;28;45609;-74
2023/07/06 07:08:27;;;;;;;;;4.00;2.25;;;;;;;;5011127;28;46970;-76
2023/07/06 07:10:53;;;;;;;;;3.50;2.00;;;;;;;;5010053;28;45410;-75
2023/07/06 07:13:18;;;;;;;;;4.00;2.75;;;;;;;;5011313;28;45539;-74
2023/07/06 07:15:43;;;;;;;;;3.00;1.75;;;;;;;;5003094;28;45714;-75
2023/07/06 07:18:09;;;;;;;;;2.50;2.00;;;;;;;;5005515;28;47105;-76
2023/07/06 07:20:34;;;;;;;;;3.50;2.25;;;;;;;;5004996;28;45742;-75
2023/07/06 07:23:01;;;;;;;;;2.00;2.00;;;;;;;;5005898;28;45836;-74
2023/07/06 07:25:27;;;;;;;;;2.00;2.00;;;;;;;;5009205;28;45759;-73
2023/07/06 07:27:54;;;;;;;;;3.50;2.25;;;;;;;;5002368;28;46262;-75
2023/07/06 07:30:20;;;;;;;;;2.50;2.50;;;;;;;;5008513;28;45713;-75
2023/07/06 07:32:47;;;;;;;;;2.00;2.00;;;;;;;;5013900;28;45717;-75
2023/07/06 07:35:12;;;;;;;;;2.00;2.00;;;;;;;;5013969;28;45500;-75
2023/07/06 07:37:38;;;;;;;;;4.00;2.00;;;;;;;;5009456;28;46477;-74
2023/07/06 07:40:05;;;;;;;;;2.00;1.75;;;;;;;;5003225;28;45792;-75
2023/07/06 07:42:30;;;;;;;;;3.00;3.00;;;;;;;;5008610;28;45661;-74
2023/07/06 07:44:57;;;;;;;;;2.00;1.00;;;;;;;;4999802;28;46071;-74
2023/07/06 07:47:24;;;;;;;;;1.50;1.50;;;;;;;;5006516;28;46285;-76
2023/07/06 07:49:49;;;;;;;;;1.75;1.75;;;;;;;;5007302;28;45678;-76
2023/07/06 07:52:15;;;;;;;;;2.50;2.50;;;;;;;;5012135;28;45390;-75
2023/07/06 07:54:42;;;;;;;;;1.00;1.00;;;;;;;;5010154;28;45765;-77
2023/07/06 07:57:07;;;;;;;;;2.00;2.00;;;;;;;;5012680;28;45901;-75
2023/07/06 07:59:33;;;;;;;;;5.50;4.75;;;;;;;;5010790;28;45396;-75
2023/07/06 08:01:59;;;;;;;;;4.25;3.25;;;;;;;;5006204;28;45440;-74
2023/07/06 08:04:24;;;;;;;;;4.00;2.75;;;;;;;;5010986;28;45738;-75
2023/07/06 08:06:50;;;;;;;;;2.75;1.75;;;;;;;;5011248;28;46507;-76
2023/07/06 08:09:15;;;;;;;;;4.25;2.25;;;;;;;;5006889;28;45857;-75
2023/07/06 08:11:45;;;;;;;;;3.00;3.00;;;;;;;;5008272;28;45553;-75
2023/07/06 08:14:11;;;;;;;;;3.50;2.50;;;;;;;;5003789;28;45710;-74
2023/07/06 08:16:38;;;;;;;;;3.00;3.00;;;;;;;;5017912;28;46080;-73
2023/07/06 08:19:05;;;;;;;;;4.00;3.25;;;;;;;;5013162;28;46344;-74
2023/07/06 08:21:30;;;;;;;;;2.50;2.50;;;;;;;;5010314;28;45364;-74
2023/07/06 08:23:57;;;;;;;;;4.50;3.50;;;;;;;;5015192;28;45488;-74
2023/07/06 08:26:23;;;;;;;;;4.25;3.25;;;;;;;;5017563;28;45946;-73
2023/07/06 08:28:49;;;;;;;;;5.00;3.50;;;;;;;;5015196;28;45772;-75
2023/07/06 08:31:16;;;;;;;;;5.25;2.75;;;;;;;;5015926;28;45840;-72
2023/07/06 08:33:41;;;;;;;;;4.00;4.00;;;;;;;;5021998;28;45376;-73
2023/07/06 08:36:07;;;;;;;;;4.75;4.75;;;;;;;;5014733;28;45667;-73
2023/07/06 08:38:33;;;;;;;;;3.00;3.00;;;;;;;;5015205;28;46119;-73
2023/07/06 08:40:59;;;;;;;;;2.00;2.00;;;;;;;;5012782;28;45809;-74
2023/07/06 08:43:26;;;;;;;;;3.00;3.00;;;;;;;;5014197;28;45797;-74
2023/07/06 08:45:58;;;;;;;;;4.00;4.00;;;;;;;;5030492;22;46949;-77
2023/07/06 08:48:27;;;;;;;;;2.25;2.25;;;;;;;;5024355;28;45583;-77
2023/07/06 08:50:54;;;;;;;;;2.75;2.75;;;;;;;;5023350;28;45541;-78
2023/07/06 08:53:20;;;;;;;;;3.00;3.00;;;;;;;;5022597;28;45862;-77
2023/07/06 08:55:49;;;;;;;;;3.67;2.33;;;;;;;;5029881;28;46609;-77
2023/07/06 08:58:21;;;;;;;;;5.67;5.00;;;;;;;;5023355;28;45803;-79
2023/07/06 09:00:46;;;;;;;;;6.00;5.00;;;;;;;;5028061;28;45746;-78
2023/07/06 09:03:13;;;;;;;;;4.00;3.33;;;;;;;;5031897;28;45918;-77
2023/07/06 09:05:41;;;;;;;;;5.67;4.33;;;;;;;;5032834;28;46542;-76
2023/07/06 09:08:08;;;;;;;;;7.33;4.67;;;;;;;;5035642;28;45524;-78
2023/07/06 09:10:34;;;;;;;;;4.33;3.67;;;;;;;;5040045;28;45395;-79
2023/07/06 09:13:13;;;;;;;;;3.67;3.67;;;;;;;;5027739;28;46773;-78
2023/07/06 09:15:38;;;;;;;;;7.67;5.00;;;;;;;;5023573;28;47794;-77
2023/07/06 09:18:04;;;;;;;;;2.00;2.00;;;;;;;;5030299;28;45517;-79
2023/07/06 09:20:31;;;;;;;;;4.00;3.00;;;;;;;;5031402;28;45774;-78
2023/07/06 09:22:56;;;;;;;;;6.00;3.33;;;;;;;;5031219;28;45735;-78
2023/07/06 09:25:35;;;;;;;;;1.67;1.67;;;;;;;;5029508;28;45776;-78
2023/07/06 09:28:01;;;;;;;;;2.67;2.67;;;;;;;;5030597;28;45698;-77
2023/07/06 09:30:29;;;;;;;;;2.00;2.00;;;;;;;;5031942;28;45395;-77
2023/07/06 09:33:00;;;;;;;;;4.00;2.67;;;;;;;;5030745;28;45504;-78
2023/07/06 09:35:28;;;;;;;;;5.33;5.00;;;;;;;;5031936;28;47720;-78
2023/07/06 09:37:54;;;;;;;;;3.67;3.67;;;;;;;;5027825;28;45909;-79
2023/07/06 09:40:27;;;;;;;;;4.00;4.00;;;;;;;;5018762;28;45687;-78
2023/07/06 09:42:52;;;;;;;;;4.67;4.67;;;;;;;;5031431;28;45438;-79
2023/07/06 09:45:28;;;;;;;;;5.33;5.00;;;;;;;;5033561;28;45469;-78
2023/07/06 09:47:55;;;;;;;;;3.67;3.00;;;;;;;;5051281;28;45941;-78
2023/07/06 09:50:22;;;;;;;;;3.33;3.33;;;;;;;;5021624;28;45788;-78
2023/07/06 09:52:47;;;;;;;;;5.33;5.00;;;;;;;;5049402;28;45746;-77
2023/07/06 09:55:13;;;;;;;;;6.33;5.00;;;;;;;;5046005;28;46221;-77
2023/07/06 09:57:40;;;;;;;;;3.67;3.00;;;;;;;;5037545;28;45901;-77
2023/07/06 10:00:12;;;;;;;;;4.00;3.00;;;;;;;;5038949;28;45719;-76
2023/07/06 10:02:45;;;;;;;;;4.00;4.00;;;;;;;;5045320;28;45971;-76
2023/07/06 10:05:19;;;;;;;;;5.00;4.00;;;;;;;;5034689;28;45881;-78
2023/07/06 10:07:55;;;;;;;;;4.67;4.67;;;;;;;;5040816;28;45584;-77
2023/07/06 10:10:30;;;;;;;;;5.00;3.33;;;;;;;;5032764;28;45789;-79
2023/07/06 10:13:04;;;;;;;;;3.25;2.75;;;;;;;;5032979;28;46008;-79
2023/07/06 10:15:33;;;;;;;;;5.00;5.00;;;;;;;;5041103;28;46860;-79
2023/07/06 10:20:35;;;;;;;;;4.00;4.00;;;;;;;;5020745;28;67770;-81
2023/07/06 10:23:35;;;;;;;;;4.00;4.00;;;;;;;;5037715;28;45897;-81
2023/07/06 10:26:14;;;;;;;;;5.00;2.67;;;;;;;;4967879;28;47048;-79
2023/07/06 10:28:42;;;;;;;;;5.33;4.00;;;;;;;;5024937;28;45617;-81
2023/07/06 10:31:08;;;;;;;;;3.33;3.33;;;;;;;;5041284;28;45690;-79
2023/07/06 10:33:38;;;;;;;;;3.50;3.50;;;;;;;;5041452;28;45800;-80
2023/07/06 10:36:05;;;;;;;;;8.33;6.00;;;;;;;;5029022;28;48279;-78
2023/07/06 10:38:30;;;;;;;;;8.00;5.00;;;;;;;;5038990;28;45767;-78
2023/07/06 10:41:18;;;;;;;;;7.33;5.00;;;;;;;;5043950;28;45832;-79
2023/07/06 10:43:43;;;;;;;;;5.33;4.00;;;;;;;;5043819;28;46164;-79
2023/07/06 10:46:30;;;;;;;;;3.00;3.00;;;;;;;;5022111;28;46733;-79
2023/07/06 10:48:59;;;;;;;;;6.50;4.25;;;;;;;;5035700;28;45934;-78
2023/07/06 10:51:27;;;;;;;;;5.33;4.00;;;;;;;;5045062;28;45853;-79
2023/07/06 10:53:53;;;;;;;;;0.50;0.50;;;;;;;;5035675;28;45745;-78
2023/07/06 10:56:22;;;;;;;;;4.75;4.75;;;;;;;;5045872;28;46161;-78
2023/07/06 10:58:51;;;;;;;;;6.75;5.00;;;;;;;;5032637;28;45961;-78
2023/07/06 11:01:19;;;;;;;;;4.25;4.25;;;;;;;;5043785;28;45404;-77
2023/07/06 11:03:44;;;;;;;;;4.75;3.25;;;;;;;;5037454;28;45982;-78
2023/07/06 11:06:13;;;;;;;;;5.50;4.00;;;;;;;;5048514;28;45880;-78
2023/07/06 11:08:57;;;;;;;;;4.75;4.00;;;;;;;;5041707;28;45545;-76
2023/07/06 11:11:25;;;;;;;;;3.00;3.00;;;;;;;;5045440;28;45757;-78
2023/07/06 11:13:53;;;;;;;;;3.50;3.00;;;;;;;;5044078;28;45876;-79
2023/07/06 11:16:43;;;;;;;;;5.50;3.75;;;;;;;;5046015;28;46315;-80
2023/07/06 11:19:13;;;;;;;;;5.00;3.75;;;;;;;;5034538;28;46268;-80
2023/07/06 11:21:43;;;;;;;;;3.75;3.00;;;;;;;;5038984;28;45703;-79
2023/07/06 11:24:11;;;;;;;;;4.25;3.50;;;;;;;;5018851;28;45474;-76
2023/07/06 11:26:42;;;;;;;;;6.00;4.50;;;;;;;;5044197;28;46305;-78
2023/07/06 11:29:08;;;;;;;;;5.00;2.50;;;;;;;;5026314;28;45829;-78
2023/07/06 11:31:39;;;;;;;;;7.25;5.00;;;;;;;;5047723;28;45982;-79
2023/07/06 11:34:08;;;;;;;;;4.00;4.00;;;;;;;;5030875;28;46572;-78
2023/07/06 11:36:39;;;;;;;;;2.50;2.50;;;;;;;;5038552;28;46361;-79
2023/07/06 11:39:23;;;;;;;;;5.00;3.50;;;;;;;;5043864;28;45587;-79
2023/07/06 11:41:53;;;;;;;;;1.75;1.25;;;;;;;;5035468;28;45842;-80
2023/07/06 11:44:24;;;;;;;;;4.25;3.75;;;;;;;;5043365;28;45634;-80
2023/07/06 11:47:06;;;;;;;;;2.00;2.00;;;;;;;;5036957;28;45730;-78
2023/07/06 11:49:40;;;;;;;;;4.00;4.00;;;;;;;;5042959;28;45377;-79
2023/07/06 11:52:09;;;;;;;;;1.50;1.50;;;;;;;;5036670;28;45499;-79
2023/07/06 11:54:48;;;;;;;;;4.50;3.25;;;;;;;;5045134;28;45528;-79
2023/07/06 11:57:41;;;;;;;;;4.00;4.00;;;;;;;;5046517;28;46286;-78
2023/07/06 12:00:18;;;;;;;;;3.00;3.00;;;;;;;;5041684;28;45396;-78
2023/07/06 12:03:03;;;;;;;;;3.00;3.00;;;;;;;;5039559;28;45565;-77
2023/07/06 12:05:33;;;;;;;;;1.00;1.00;;;;;;;;5039589;28;46220;-79
2023/07/06 12:08:00;;;;;;;;;3.75;2.25;;;;;;;;5032550;28;45711;-76
2023/07/06 12:10:26;;;;;;;;;3.00;3.00;;;;;;;;5034994;28;45824;-77
2023/07/06 12:12:55;;;;;;;;;7.50;6.50;;;;;;;;5014916;28;45868;-78
2023/07/06 12:15:21;;;;;;;;;5.00;5.00;;;;;;;;5037960;28;46584;-78
2023/07/06 12:17:52;;;;;;;;;4.25;4.25;;;;;;;;5037325;28;46361;-78
2023/07/06 12:20:21;;;;;;;;;3.00;3.00;;;;;;;;5038653;28;45988;-78
2023/07/06 12:22:57;;;;;;;;;3.50;3.50;;;;;;;;5040194;28;45408;-79
2023/07/06 12:25:23;;;;;;;;;3.00;3.00;;;;;;;;5040736;28;45468;-78
2023/07/06 12:27:48;;;;;;;;;4.00;4.00;;;;;;;;5038604;28;46509;-78
2023/07/06 12:30:15;;;;;;;;;3.00;3.00;;;;;;;;5038534;28;45485;-78
2023/07/06 12:32:43;;;;;;;;;3.75;3.00;;;;;;;;5036095;28;45414;-78
2023/07/06 12:35:11;;;;;;;;;4.00;4.00;;;;;;;;5029580;28;46225;-78
2023/07/06 12:37:41;;;;;;;;;1.75;0.75;;;;;;;;5041865;28;45765;-76
2023/07/06 12:40:17;;;;;;;;;3.75;3.50;;;;;;;;5031842;28;45749;-78
2023/07/06 12:42:43;;;;;;;;;4.25;3.75;;;;;;;;5039497;28;46186;-77
2023/07/06 12:45:10;;;;;;;;;4.00;4.00;;;;;;;;5030840;28;46084;-77
2023/07/06 12:47:37;;;;;;;;;3.00;2.00;;;;;;;;5038604;28;45419;-77
2023/07/06 12:50:05;;;;;;;;;3.00;3.00;;;;;;;;5031940;28;45845;-78
2023/07/06 12:52:32;;;;;;;;;3.75;2.75;;;;;;;;5030353;28;45812;-77
2023/07/06 12:54:58;;;;;;;;;5.00;2.00;;;;;;;;5044535;28;46180;-78
2023/07/06 12:57:25;;;;;;;;;2.67;2.67;;;;;;;;5023153;28;47484;-77
2023/07/06 12:59:54;;;;;;;;;4.25;3.00;;;;;;;;5037894;28;45724;-77
2023/07/06 13:02:20;;;;;;;;;2.25;2.25;;;;;;;;5045802;28;45818;-78
2023/07/06 13:04:47;;;;;;;;;1.75;1.75;;;;;;;;5053727;28;45524;-77
2023/07/06 13:07:17;;;;;;;;;3.50;3.00;;;;;;;;5041970;28;46018;-79
2023/07/06 13:09:43;;;;;;;;;3.33;2.67;;;;;;;;5042789;28;45498;-79
2023/07/06 13:12:17;;;;;;;;;3.67;3.00;;;;;;;;5027802;28;45582;-78
2023/07/06 13:14:44;;;;;;;;;4.25;3.25;;;;;;;;5039327;28;45697;-79
2023/07/06 13:17:16;;;;;;;;;4.50;4.50;;;;;;;;5023507;28;45910;-78
2023/07/06 13:19:43;;;;;;;;;4.00;2.25;;;;;;;;5043528;28;45340;-79
2023/07/06 13:22:09;;;;;;;;;2.50;2.00;;;;;;;;5044378;28;45754;-78
2023/07/06 13:24:39;;;;;;;;;5.50;3.75;;;;;;;;5043296;28;45719;-79
2023/07/06 13:27:05;;;;;;;;;2.33;1.67;;;;;;;;5045567;28;45966;-79
2023/07/06 13:29:34;;;;;;;;;5.00;3.67;;;;;;;;5046021;28;45573;-81
2023/07/06 13:32:00;;;;;;;;;4.67;4.00;;;;;;;;5040478;28;45494;-79
2023/07/06 13:34:25;;;;;;;;;2.00;2.00;;;;;;;;5041563;28;45949;-78
2023/07/06 13:36:51;;;;;;;;;2.00;2.00;;;;;;;;5042356;28;46753;-78
2023/07/06 13:39:19;;;;;;;;;2.50;2.50;;;;;;;;5041232;28;45510;-80
2023/07/06 13:41:44;;;;;;;;;4.00;3.00;;;;;;;;5036284;28;45406;-78
2023/07/06 13:44:10;;;;;;;;;5.00;3.33;;;;;;;;5031331;28;46483;-79
2023/07/06 13:46:35;;;;;;;;;6.00;2.67;;;;;;;;5049727;28;45810;-81
2023/07/06 13:49:01;;;;;;;;;3.67;2.67;;;;;;;;5045367;28;45405;-79
2023/07/06 13:51:27;;;;;;;;;3.67;3.67;;;;;;;;5039161;28;45756;-79
2023/07/06 13:53:54;;;;;;;;;4.00;4.00;;;;;;;;5038069;28;45825;-78
2023/07/06 13:56:20;;;;;;;;;3.33;3.33;;;;;;;;5042741;28;45461;-78
2023/07/06 13:58:45;;;;;;;;;4.33;4.33;;;;;;;;5029873;28;45767;-79
2023/07/06 14:01:12;;;;;;;;;6.00;5.00;;;;;;;;5036830;28;46041;-77
2023/07/06 14:03:39;;;;;;;;;3.00;3.00;;;;;;;;5048111;28;45801;-78
2023/07/06 14:06:05;;;;;;;;;3.67;3.67;;;;;;;;5042618;28;45501;-78
2023/07/06 14:08:33;;;;;;;;;3.00;3.00;;;;;;;;5046663;28;45557;-78
2023/07/06 14:11:00;;;;;;;;;3.00;1.00;;;;;;;;5041704;28;45777;-77
2023/07/06 14:13:26;;;;;;;;;5.00;4.00;;;;;;;;5026505;28;46074;-78
2023/07/06 14:15:51;;;;;;;;;4.67;3.00;;;;;;;;5044723;28;45529;-79
2023/07/06 14:18:17;;;;;;;;;5.00;4.67;;;;;;;;5047316;28;45891;-79
2023/07/06 14:20:44;;;;;;;;;5.00;3.67;;;;;;;;5041956;28;45568;-77
2023/07/06 14:23:14;;;;;;;;;4.33;2.00;;;;;;;;5037948;28;45766;-78
2023/07/06 14:25:39;;;;;;;;;3.67;2.33;;;;;;;;5038641;28;46469;-78
2023/07/06 14:28:05;;;;;;;;;3.00;3.00;;;;;;;;5028548;28;45885;-79
2023/07/06 14:30:32;;;;;;;;;4.00;4.00;;;;;;;;5024335;28;45848;-80
2023/07/06 14:33:01;;;;;;;;;5.00;3.67;;;;;;;;5038431;28;45805;-79
2023/07/06 14:35:26;;;;;;;;;3.00;3.00;;;;;;;;5029764;28;45729;-80
2023/07/06 14:37:53;;;;;;;;;5.00;4.00;;;;;;;;5041623;28;45446;-85
2023/07/06 14:40:18;;;;;;;;;3.00;3.00;;;;;;;;5032440;28;45672;-79
2023/07/06 14:42:47;;;;;;;;;5.00;4.00;;;;;;;;5037529;28;45432;-81
2023/07/06 14:45:13;;;;;;;;;3.67;3.67;;;;;;;;5015748;28;45956;-82
2023/07/06 14:47:38;;;;;;;;;3.00;3.00;;;;;;;;5020018;28;45796;-80